sensor_id;sensor_type;location;lat;lon;timestamp;pressure;altitude;pressure_sealevel;temperature;humidity
6136;BME280;24008;42.664;23.372;2023-01-08T00:01:06;95231.50;;;0.87;86.69
6136;BME280;24008;42.664;23.372;2023-01-08T00:03:34;95243.22;;;0.88;86.93
6136;BME280;24008;42.664;23.372;2023-01-08T00:06:02;95181.97;;;0.34;86.91
6136;BME280;24008;42.664;23.372;2023-01-08T00:08:29;95132.09;;;0.07;87.52
6136;BME280;24008;42.664;23.372;2023-01-08T00:10:56;95176.84;;;0.17;87.73
6136;BME280;24008;42.664;23.372;2023-01-08T00:13:25;95180.03;;;0.40;87.67
6136;BME280;24008;42.664;23.372;2023-01-08T00:15:52;95273.53;;;1.04;87.97
6136;BME280;24008;42.664;23.372;2023-01-08T00:18:19;95241.00;;;0.82;88.22
6136;BME280;24008;42.664;23.372;2023-01-08T00:20:46;95052.00;;;-0.37;87.97
6136;BME280;24008;42.664;23.372;2023-01-08T00:23:16;95105.63;;;-0.01;88.20
6136;BME280;24008;42.664;23.372;2023-01-08T00:25:43;95272.31;;;0.94;88.25
6136;BME280;24008;42.664;23.372;2023-01-08T00:28:10;95114.09;;;-0.03;87.80
6136;BME280;24008;42.664;23.372;2023-01-08T00:30:41;95139.00;;;0.02;87.58
6136;BME280;24008;42.664;23.372;2023-01-08T00:33:10;95258.66;;;0.81;87.86
6136;BME280;24008;42.664;23.372;2023-01-08T00:35:38;95199.50;;;0.36;87.52
6136;BME280;24008;42.664;23.372;2023-01-08T00:38:05;95280.63;;;0.77;87.39
6136;BME280;24008;42.664;23.372;2023-01-08T00:40:32;95280.63;;;0.77;87.76
6136;BME280;24008;42.664;23.372;2023-01-08T00:43:00;94966.00;;;-1.19;87.47
6136;BME280;24008;42.664;23.372;2023-01-08T00:45:27;95218.22;;;0.29;87.45
6136;BME280;24008;42.664;23.372;2023-01-08T00:47:55;95245.38;;;0.60;87.39
6136;BME280;24008;42.664;23.372;2023-01-08T00:50:22;95325.91;;;0.77;87.82
6136;BME280;24008;42.664;23.372;2023-01-08T00:52:49;95282.31;;;0.77;87.76
6136;BME280;24008;42.664;23.372;2023-01-08T00:55:17;95198.88;;;0.31;87.57
6136;BME280;24008;42.664;23.372;2023-01-08T00:57:45;95268.03;;;0.77;87.70
6136;BME280;24008;42.664;23.372;2023-01-08T01:00:13;95274.78;;;0.77;88.19
6136;BME280;24008;42.664;23.372;2023-01-08T01:02:42;95190.91;;;0.03;88.42
6136;BME280;24008;42.664;23.372;2023-01-08T01:05:11;95043.25;;;-0.67;87.93
6136;BME280;24008;42.664;23.372;2023-01-08T01:07:40;95278.09;;;0.77;88.12
6136;BME280;24008;42.664;23.372;2023-01-08T01:10:08;95278.47;;;0.69;88.65
6136;BME280;24008;42.664;23.372;2023-01-08T01:12:36;95070.53;;;-0.60;88.37
6136;BME280;24008;42.664;23.372;2023-01-08T01:15:05;94752.78;;;-3.14;87.95
6136;BME280;24008;42.664;23.372;2023-01-08T01:17:33;94633.41;;;-3.93;88.02
6136;BME280;24008;42.664;23.372;2023-01-08T01:20:00;94620.53;;;-4.04;88.28
6136;BME280;24008;42.664;23.372;2023-01-08T01:22:29;95173.63;;;-0.44;88.85
6136;BME280;24008;42.664;23.372;2023-01-08T01:24:56;95270.84;;;0.52;89.38
6136;BME280;24008;42.664;23.372;2023-01-08T01:27:25;95269.06;;;0.54;89.61
6136;BME280;24008;42.664;23.372;2023-01-08T01:29:52;95265.69;;;0.55;90.01
6136;BME280;24008;42.664;23.372;2023-01-08T01:32:18;95020.22;;;-0.96;89.93
6136;BME280;24008;42.664;23.372;2023-01-08T01:34:45;95262.41;;;0.53;89.85
6136;BME280;24008;42.664;23.372;2023-01-08T01:37:13;95217.47;;;0.27;89.76
6136;BME280;24008;42.664;23.372;2023-01-08T01:39:41;95076.66;;;-0.65;89.44
6136;BME280;24008;42.664;23.372;2023-01-08T01:42:11;95162.91;;;-0.09;89.38
6136;BME280;24008;42.664;23.372;2023-01-08T01:45:01;95261.47;;;0.56;89.84
6136;BME280;24008;42.664;23.372;2023-01-08T01:47:32;95254.78;;;0.55;89.62
6136;BME280;24008;42.664;23.372;2023-01-08T01:50:03;95085.22;;;-0.51;89.29
6136;BME280;24008;42.664;23.372;2023-01-08T01:52:33;95253.91;;;0.56;89.49
6136;BME280;24008;42.664;23.372;2023-01-08T01:55:05;95226.53;;;0.31;89.63
6136;BME280;24008;42.664;23.372;2023-01-08T01:57:33;95114.13;;;-0.42;89.18
6136;BME280;24008;42.664;23.372;2023-01-08T02:00:03;95253.00;;;0.38;88.88
6136;BME280;24008;42.664;23.372;2023-01-08T02:02:30;95260.22;;;0.27;88.77
6136;BME280;24008;42.664;23.372;2023-01-08T02:04:58;95248.69;;;0.23;88.73
6136;BME280;24008;42.664;23.372;2023-01-08T02:07:29;95253.94;;;0.17;88.59
6136;BME280;24008;42.664;23.372;2023-01-08T02:10:08;95234.78;;;0.14;88.75
6136;BME280;24008;42.664;23.372;2023-01-08T02:12:38;95242.53;;;0.10;88.87
6136;BME280;24008;42.664;23.372;2023-01-08T02:15:12;95243.28;;;0.12;89.22
6136;BME280;24008;42.664;23.372;2023-01-08T02:17:50;95236.00;;;0.06;89.40
6136;BME280;24008;42.664;23.372;2023-01-08T02:20:22;95236.94;;;0.03;89.61
6136;BME280;24008;42.664;23.372;2023-01-08T02:23:01;95111.16;;;-0.70;89.69
6136;BME280;24008;42.664;23.372;2023-01-08T02:28:37;95231.06;;;0.23;91.60
6136;BME280;24008;42.664;23.372;2023-01-08T02:31:06;95185.13;;;0.00;91.55
6136;BME280;24008;42.664;23.372;2023-01-08T02:33:34;95225.06;;;0.25;91.46
6136;BME280;24008;42.664;23.372;2023-01-08T02:36:21;95226.66;;;0.28;91.84
6136;BME280;24008;42.664;23.372;2023-01-08T02:38:59;95221.56;;;0.29;91.67
6136;BME280;24008;42.664;23.372;2023-01-08T02:41:37;95144.97;;;-0.20;92.17
6136;BME280;24008;42.664;23.372;2023-01-08T02:44:12;95213.06;;;0.32;91.98
6136;BME280;24008;42.664;23.372;2023-01-08T02:46:42;95222.31;;;0.31;92.27
6136;BME280;24008;42.664;23.372;2023-01-08T02:49:12;95224.88;;;0.30;92.12
6136;BME280;24008;42.664;23.372;2023-01-08T02:51:43;95176.50;;;0.06;91.94
6136;BME280;24008;42.664;23.372;2023-01-08T02:54:14;95173.72;;;0.12;91.67
6136;BME280;24008;42.664;23.372;2023-01-08T02:56:44;95207.97;;;0.33;91.46
6136;BME280;24008;42.664;23.372;2023-01-08T02:59:14;95211.31;;;0.34;91.56
6136;BME280;24008;42.664;23.372;2023-01-08T03:01:42;95214.69;;;0.33;90.85
6136;BME280;24008;42.664;23.372;2023-01-08T03:04:14;95217.41;;;0.28;90.68
6136;BME280;24008;42.664;23.372;2023-01-08T03:06:43;95227.69;;;0.24;90.14
6136;BME280;24008;42.664;23.372;2023-01-08T03:09:11;95050.47;;;-1.19;89.37
6136;BME280;24008;42.664;23.372;2023-01-08T03:11:43;95162.09;;;-0.28;89.04
6136;BME280;24008;42.664;23.372;2023-01-08T03:14:18;95225.31;;;0.00;88.92
6136;BME280;24008;42.664;23.372;2023-01-08T03:16:48;95185.44;;;-0.26;88.57
6136;BME280;24008;42.664;23.372;2023-01-08T03:19:19;95187.59;;;-0.37;88.77
6136;BME280;24008;42.664;23.372;2023-01-08T03:21:49;95230.66;;;-0.26;88.75
6136;BME280;24008;42.664;23.372;2023-01-08T03:24:20;95229.13;;;-0.30;89.23
6136;BME280;24008;42.664;23.372;2023-01-08T03:26:49;95195.88;;;-0.55;89.32
6136;BME280;24008;42.664;23.372;2023-01-08T03:29:19;95229.25;;;-0.33;89.55
6136;BME280;24008;42.664;23.372;2023-01-08T03:31:49;95227.56;;;-0.32;90.18
6136;BME280;24008;42.664;23.372;2023-01-08T03:34:19;95225.88;;;-0.32;90.45
6136;BME280;24008;42.664;23.372;2023-01-08T03:36:49;95230.06;;;-0.32;90.24
6136;BME280;24008;42.664;23.372;2023-01-08T03:39:20;95167.25;;;-0.72;90.67
6136;BME280;24008;42.664;23.372;2023-01-08T03:41:51;95231.09;;;-0.37;90.57
6136;BME280;24008;42.664;23.372;2023-01-08T03:44:21;95220.28;;;-0.39;91.18
6136;BME280;24008;42.664;23.372;2023-01-08T03:46:52;95188.59;;;-0.61;91.01
6136;BME280;24008;42.664;23.372;2023-01-08T03:49:20;95042.06;;;-1.59;90.90
6136;BME280;24008;42.664;23.372;2023-01-08T03:51:48;95216.44;;;-0.47;90.80
6136;BME280;24008;42.664;23.372;2023-01-08T03:54:16;95216.44;;;-0.47;90.60
6136;BME280;24008;42.664;23.372;2023-01-08T03:56:44;94978.47;;;-1.98;90.29
6136;BME280;24008;42.664;23.372;2023-01-08T03:59:12;95181.44;;;-0.70;90.66
6136;BME280;24008;42.664;23.372;2023-01-08T04:01:41;95144.78;;;-0.95;90.24
6136;BME280;24008;42.664;23.372;2023-01-08T04:04:09;95191.69;;;-0.75;90.22
6136;BME280;24008;42.664;23.372;2023-01-08T04:06:37;95186.88;;;-0.81;90.14
6136;BME280;24008;42.664;23.372;2023-01-08T04:09:04;95220.34;;;-0.60;90.74
6136;BME280;24008;42.664;23.372;2023-01-08T04:11:31;95232.22;;;-0.64;91.15
6136;BME280;24008;42.664;23.372;2023-01-08T04:13:58;95220.47;;;-0.63;91.56
6136;BME280;24008;42.664;23.372;2023-01-08T04:16:25;95219.59;;;-0.62;91.13
6136;BME280;24008;42.664;23.372;2023-01-08T04:18:54;95235.53;;;-0.63;91.39
6136;BME280;24008;42.664;23.372;2023-01-08T04:21:21;95120.34;;;-1.32;91.56
6136;BME280;24008;42.664;23.372;2023-01-08T04:23:48;95191.94;;;-1.03;91.46
6136;BME280;24008;42.664;23.372;2023-01-08T04:26:15;95227.03;;;-0.81;91.39
6136;BME280;24008;42.664;23.372;2023-01-08T04:28:42;95233.13;;;-0.87;91.68
6136;BME280;24008;42.664;23.372;2023-01-08T04:31:09;95232.75;;;-0.98;91.23
6136;BME280;24008;42.664;23.372;2023-01-08T04:33:36;95230.44;;;-1.04;91.69
6136;BME280;24008;42.664;23.372;2023-01-08T04:36:05;95238.03;;;-1.05;91.72
6136;BME280;24008;42.664;23.372;2023-01-08T04:38:32;95232.56;;;-1.15;92.00
6136;BME280;24008;42.664;23.372;2023-01-08T04:41:00;95230.00;;;-1.14;91.94
6136;BME280;24008;42.664;23.372;2023-01-08T04:43:28;95194.75;;;-1.32;92.57
6136;BME280;24008;42.664;23.372;2023-01-08T04:45:56;95221.66;;;-1.14;92.63
6136;BME280;24008;42.664;23.372;2023-01-08T04:48:24;95193.81;;;-1.52;92.59
6136;BME280;24008;42.664;23.372;2023-01-08T04:50:51;95228.47;;;-1.18;92.70
6136;BME280;24008;42.664;23.372;2023-01-08T04:53:20;95221.25;;;-1.25;93.31
6136;BME280;24008;42.664;23.372;2023-01-08T04:55:47;95055.66;;;-2.30;93.63
6136;BME280;24008;42.664;23.372;2023-01-08T04:58:14;95228.53;;;-1.19;93.27
6136;BME280;24008;42.664;23.372;2023-01-08T05:00:41;95168.94;;;-1.56;93.81
6136;BME280;24008;42.664;23.372;2023-01-08T05:03:08;95226.16;;;-1.22;94.37
6136;BME280;24008;42.664;23.372;2023-01-08T05:05:37;95240.38;;;-1.23;94.56
6136;BME280;24008;42.664;23.372;2023-01-08T05:08:04;95201.03;;;-1.44;94.30
6136;BME280;24008;42.664;23.372;2023-01-08T05:10:32;95237.09;;;-1.25;94.49
6136;BME280;24008;42.664;23.372;2023-01-08T05:12:59;95233.72;;;-1.24;94.63
6136;BME280;24008;42.664;23.372;2023-01-08T05:15:27;95235.38;;;-1.23;94.49
6136;BME280;24008;42.664;23.372;2023-01-08T05:17:58;95184.16;;;-1.61;94.88
6136;BME280;24008;42.664;23.372;2023-01-08T05:20:25;95238.03;;;-1.27;94.55
6136;BME280;24008;42.664;23.372;2023-01-08T05:22:52;95230.47;;;-1.26;95.02
6136;BME280;24008;42.664;23.372;2023-01-08T05:25:20;95170.44;;;-1.74;95.85
6136;BME280;24008;42.664;23.372;2023-01-08T05:27:49;95245.03;;;-1.35;95.71
6136;BME280;24008;42.664;23.372;2023-01-08T05:30:16;95207.69;;;-1.65;95.87
6136;BME280;24008;42.664;23.372;2023-01-08T05:32:43;95204.31;;;-1.64;95.88
6136;BME280;24008;42.664;23.372;2023-01-08T05:35:10;95250.50;;;-1.48;96.15
6136;BME280;24008;42.664;23.372;2023-01-08T05:37:37;95206.34;;;-1.73;95.64
6136;BME280;24008;42.664;23.372;2023-01-08T05:40:05;95247.13;;;-1.47;96.22
6136;BME280;24008;42.664;23.372;2023-01-08T05:42:33;95182.53;;;-1.85;95.96
6136;BME280;24008;42.664;23.372;2023-01-08T05:45:02;95186.56;;;-1.81;96.45
6136;BME280;24008;42.664;23.372;2023-01-08T05:47:30;95238.59;;;-1.42;96.69
6136;BME280;24008;42.664;23.372;2023-01-08T05:49:57;95150.44;;;-1.97;96.88
6136;BME280;24008;42.664;23.372;2023-01-08T05:52:24;95239.88;;;-1.32;96.83
6136;BME280;24008;42.664;23.372;2023-01-08T05:54:52;95203.75;;;-1.49;97.73
6136;BME280;24008;42.664;23.372;2023-01-08T05:57:19;95262.91;;;-1.21;97.91
6136;BME280;24008;42.664;23.372;2023-01-08T05:59:46;95238.44;;;-1.16;98.10
6136;BME280;24008;42.664;23.372;2023-01-08T06:02:14;95243.03;;;-1.05;98.49
6136;BME280;24008;42.664;23.372;2023-01-08T06:04:42;95139.16;;;-1.64;98.35
6136;BME280;24008;42.664;23.372;2023-01-08T06:07:09;95246.66;;;-0.91;98.50
6136;BME280;24008;42.664;23.372;2023-01-08T06:09:36;95248.03;;;-0.84;98.29
6136;BME280;24008;42.664;23.372;2023-01-08T06:12:03;95151.63;;;-1.40;98.52
6136;BME280;24008;42.664;23.372;2023-01-08T06:14:30;95257.75;;;-0.75;97.47
6136;BME280;24008;42.664;23.372;2023-01-08T06:16:58;95237.19;;;-0.84;97.72
6136;BME280;24008;42.664;23.372;2023-01-08T06:19:26;95093.69;;;-1.76;96.50
6136;BME280;24008;42.664;23.372;2023-01-08T06:21:58;94818.69;;;-3.85;94.79
6136;BME280;24008;42.664;23.372;2023-01-08T06:24:25;95290.44;;;-0.98;94.48
6136;BME280;24008;42.664;23.372;2023-01-08T06:26:53;95254.97;;;-1.11;94.11
6136;BME280;24008;42.664;23.372;2023-01-08T06:29:21;94932.50;;;-3.30;93.17
6136;BME280;24008;42.664;23.372;2023-01-08T06:31:48;95278.56;;;-1.16;93.69
6136;BME280;24008;42.664;23.372;2023-01-08T06:34:16;95292.75;;;-1.15;94.50
6136;BME280;24008;42.664;23.372;2023-01-08T06:36:44;95181.47;;;-1.34;95.65
6136;BME280;24008;42.664;23.372;2023-01-08T06:39:11;95186.06;;;-0.41;95.31
6136;BME280;24008;42.664;23.372;2023-01-08T06:41:38;95262.75;;;0.64;92.95
6136;BME280;24008;42.664;23.372;2023-01-08T06:44:05;95092.00;;;0.22;88.67
6136;BME280;24008;42.664;23.372;2023-01-08T06:46:32;95200.84;;;1.50;84.77
6136;BME280;24008;42.664;23.372;2023-01-08T06:49:02;95266.47;;;1.98;79.59
6136;BME280;24008;42.664;23.372;2023-01-08T06:51:29;95100.00;;;1.18;78.01
6136;BME280;24008;42.664;23.372;2023-01-08T06:53:58;95273.88;;;2.99;77.00
6136;BME280;24008;42.664;23.372;2023-01-08T06:56:25;95272.72;;;3.20;73.11
6136;BME280;24008;42.664;23.372;2023-01-08T06:58:52;95264.41;;;3.63;71.65
6136;BME280;24008;42.664;23.372;2023-01-08T07:01:19;95213.84;;;3.63;70.51
6136;BME280;24008;42.664;23.372;2023-01-08T07:03:47;95173.19;;;3.52;69.48
6136;BME280;24008;42.664;23.372;2023-01-08T07:06:18;95253.91;;;4.14;69.13
6136;BME280;24008;42.664;23.372;2023-01-08T07:08:47;95182.66;;;3.93;67.85
6136;BME280;24008;42.664;23.372;2023-01-08T07:11:16;95116.00;;;3.80;65.98
6136;BME280;24008;42.664;23.372;2023-01-08T07:13:43;94401.44;;;-0.80;65.11
6136;BME280;24008;42.664;23.372;2023-01-08T07:16:11;95051.72;;;3.55;65.24
6136;BME280;24008;42.664;23.372;2023-01-08T07:18:39;95277.78;;;5.22;65.22
6136;BME280;24008;42.664;23.372;2023-01-08T07:21:07;94797.63;;;2.55;64.37
6136;BME280;24008;42.664;23.372;2023-01-08T07:23:34;94512.19;;;0.83;62.64
6136;BME280;24008;42.664;23.372;2023-01-08T07:26:05;95203.53;;;6.24;61.34
6136;BME280;24008;42.664;23.372;2023-01-08T07:28:33;95273.88;;;7.33;58.72
6136;BME280;24008;42.664;23.372;2023-01-08T07:31:04;95275.88;;;7.41;57.93
6136;BME280;24008;42.664;23.372;2023-01-08T07:33:31;95280.31;;;7.50;57.43
6136;BME280;24008;42.664;23.372;2023-01-08T07:35:58;95175.84;;;7.29;55.98
6136;BME280;24008;42.664;23.372;2023-01-08T07:38:25;95280.78;;;7.79;55.02
6136;BME280;24008;42.664;23.372;2023-01-08T07:40:53;95256.25;;;7.43;55.84
6136;BME280;24008;42.664;23.372;2023-01-08T07:43:20;95281.69;;;8.13;54.96
6136;BME280;24008;42.664;23.372;2023-01-08T07:45:49;95198.13;;;8.07;54.52
6136;BME280;24008;42.664;23.372;2023-01-08T07:48:16;95249.47;;;8.80;52.19
6136;BME280;24008;42.664;23.372;2023-01-08T07:50:43;95159.38;;;8.59;50.91
6136;BME280;24008;42.664;23.372;2023-01-08T07:53:10;95290.06;;;9.37;51.02
6136;BME280;24008;42.664;23.372;2023-01-08T07:55:38;95285.34;;;9.11;52.73
6136;BME280;24008;42.664;23.372;2023-01-08T07:58:08;95244.91;;;8.95;50.88
6136;BME280;24008;42.664;23.372;2023-01-08T08:00:35;95171.97;;;8.72;49.53
6136;BME280;24008;42.664;23.372;2023-01-08T08:03:05;95247.75;;;9.35;49.58
6136;BME280;24008;42.664;23.372;2023-01-08T08:05:32;95285.50;;;9.52;50.70
6136;BME280;24008;42.664;23.372;2023-01-08T08:08:00;95174.09;;;8.44;50.84
6136;BME280;24008;42.664;23.372;2023-01-08T08:10:27;95286.63;;;9.91;49.76
6136;BME280;24008;42.664;23.372;2023-01-08T08:12:54;95290.41;;;10.29;48.86
6136;BME280;24008;42.664;23.372;2023-01-08T08:15:21;95126.44;;;9.63;47.48
6136;BME280;24008;42.664;23.372;2023-01-08T08:17:48;95199.72;;;10.44;46.39
6136;BME280;24008;42.664;23.372;2023-01-08T08:20:17;95284.84;;;11.05;46.75
6136;BME280;24008;42.664;23.372;2023-01-08T08:22:44;95280.28;;;11.09;46.30
6136;BME280;24008;42.664;23.372;2023-01-08T08:25:11;95233.00;;;10.63;47.38
6136;BME280;24008;42.664;23.372;2023-01-08T08:27:39;95300.53;;;11.31;45.86
6136;BME280;24008;42.664;23.372;2023-01-08T08:30:08;95277.22;;;11.25;45.13
6136;BME280;24008;42.664;23.372;2023-01-08T08:32:36;95132.34;;;10.45;45.63
6136;BME280;24008;42.664;23.372;2023-01-08T08:35:04;95231.81;;;11.17;45.65
6136;BME280;24008;42.664;23.372;2023-01-08T08:37:33;95235.13;;;10.89;46.02
6136;BME280;24008;42.664;23.372;2023-01-08T08:39:59;95293.34;;;11.15;46.85
6136;BME280;24008;42.664;23.372;2023-01-08T08:42:26;95289.50;;;11.40;46.06
6136;BME280;24008;42.664;23.372;2023-01-08T08:44:53;95288.44;;;11.33;45.91
6136;BME280;24008;42.664;23.372;2023-01-08T08:47:20;95292.88;;;11.50;46.00
6136;BME280;24008;42.664;23.372;2023-01-08T08:49:47;95238.31;;;11.21;45.42
6136;BME280;24008;42.664;23.372;2023-01-08T08:52:17;95249.63;;;11.47;45.47
6136;BME280;24008;42.664;23.372;2023-01-08T08:54:45;95194.28;;;11.56;44.74
6136;BME280;24008;42.664;23.372;2023-01-08T08:57:12;95287.69;;;12.19;44.47
6136;BME280;24008;42.664;23.372;2023-01-08T08:59:39;95286.34;;;11.96;45.81
6136;BME280;24008;42.664;23.372;2023-01-08T09:02:09;95195.22;;;11.55;45.23
6136;BME280;24008;42.664;23.372;2023-01-08T09:04:37;95217.28;;;12.14;44.45
6136;BME280;24008;42.664;23.372;2023-01-08T09:07:04;95287.75;;;12.47;44.23
6136;BME280;24008;42.664;23.372;2023-01-08T09:09:31;95226.25;;;11.81;45.20
6136;BME280;24008;42.664;23.372;2023-01-08T09:12:00;95027.44;;;11.04;44.06
6136;BME280;24008;42.664;23.372;2023-01-08T09:14:27;95276.13;;;12.99;43.68
6136;BME280;24008;42.664;23.372;2023-01-08T09:16:54;95263.19;;;12.91;44.00
6136;BME280;24008;42.664;23.372;2023-01-08T09:19:21;95198.59;;;12.68;44.00
6136;BME280;24008;42.664;23.372;2023-01-08T09:21:48;95212.00;;;13.17;42.26
6136;BME280;24008;42.664;23.372;2023-01-08T09:24:16;95266.72;;;13.80;42.22
6136;BME280;24008;42.664;23.372;2023-01-08T09:26:43;94961.69;;;11.34;42.83
6136;BME280;24008;42.664;23.372;2023-01-08T09:29:12;95260.94;;;13.60;42.33
6136;BME280;24008;42.664;23.372;2023-01-08T09:31:39;95264.69;;;13.21;43.76
6136;BME280;24008;42.664;23.372;2023-01-08T09:34:06;95106.53;;;12.47;43.64
6136;BME280;24008;42.664;23.372;2023-01-08T09:36:33;95035.50;;;12.12;41.99
6136;BME280;24008;42.664;23.372;2023-01-08T09:39:00;95245.38;;;13.80;42.30
6136;BME280;24008;42.664;23.372;2023-01-08T09:41:30;94920.63;;;11.53;42.31
6136;BME280;24008;42.664;23.372;2023-01-08T09:43:59;94618.63;;;9.44;42.87
6136;BME280;24008;42.664;23.372;2023-01-08T09:46:30;95235.53;;;13.57;42.87
6136;BME280;24008;42.664;23.372;2023-01-08T09:49:00;95204.78;;;13.48;42.49
6136;BME280;24008;42.664;23.372;2023-01-08T09:51:33;95001.97;;;12.23;41.74
6136;BME280;24008;42.664;23.372;2023-01-08T09:54:02;94420.16;;;8.63;42.59
6136;BME280;24008;42.664;23.372;2023-01-08T09:56:32;94915.56;;;11.98;41.63
6136;BME280;24008;42.664;23.372;2023-01-08T09:59:01;95056.59;;;12.51;42.15
6136;BME280;24008;42.664;23.372;2023-01-08T10:01:34;95234.09;;;14.16;42.14
6136;BME280;24008;42.664;23.372;2023-01-08T10:04:04;94329.31;;;8.82;41.43
6136;BME280;24008;42.664;23.372;2023-01-08T10:06:32;94694.63;;;10.62;41.97
6136;BME280;24008;42.664;23.372;2023-01-08T10:08:59;94846.06;;;11.38;41.37
6136;BME280;24008;42.664;23.372;2023-01-08T10:11:31;95196.63;;;13.88;42.08
6136;BME280;24008;42.664;23.372;2023-01-08T10:14:00;95192.19;;;13.98;42.12
6136;BME280;24008;42.664;23.372;2023-01-08T10:16:31;95188.88;;;14.31;42.22
6136;BME280;24008;42.664;23.372;2023-01-08T10:19:01;95128.50;;;14.10;41.50
6136;BME280;24008;42.664;23.372;2023-01-08T10:21:31;95140.00;;;13.54;42.16
6136;BME280;24008;42.664;23.372;2023-01-08T10:23:58;95181.44;;;13.41;42.07
6136;BME280;24008;42.664;23.372;2023-01-08T10:26:28;95042.88;;;11.88;43.51
6136;BME280;24008;42.664;23.372;2023-01-08T10:29:06;95164.09;;;11.50;46.00
6136;BME280;24008;42.664;23.372;2023-01-08T10:31:44;94970.22;;;9.69;48.02
6136;BME280;24008;42.664;23.372;2023-01-08T10:34:22;95170.91;;;10.42;49.78
6136;BME280;24008;42.664;23.372;2023-01-08T10:36:51;95165.59;;;10.03;51.07
6136;BME280;24008;42.664;23.372;2023-01-08T10:39:21;95174.22;;;9.61;51.54
6136;BME280;24008;42.664;23.372;2023-01-08T10:41:50;95064.94;;;8.72;52.65
6136;BME280;24008;42.664;23.372;2023-01-08T10:44:20;95098.34;;;8.46;55.34
6136;BME280;24008;42.664;23.372;2023-01-08T10:46:54;95148.19;;;8.93;55.33
6136;BME280;24008;42.664;23.372;2023-01-08T10:49:29;95145.16;;;8.99;55.50
6136;BME280;24008;42.664;23.372;2023-01-08T10:51:58;95141.44;;;9.03;54.96
6136;BME280;24008;42.664;23.372;2023-01-08T10:54:31;95135.34;;;8.84;55.99
6136;BME280;24008;42.664;23.372;2023-01-08T10:56:59;95133.44;;;8.54;56.28
6136;BME280;24008;42.664;23.372;2023-01-08T10:59:26;95109.03;;;8.29;57.40
6136;BME280;24008;42.664;23.372;2023-01-08T11:01:56;95132.72;;;8.63;57.06
6136;BME280;24008;42.664;23.372;2023-01-08T11:04:27;95006.09;;;7.77;56.47
6136;BME280;24008;42.664;23.372;2023-01-08T11:06:59;95122.22;;;8.56;57.53
6136;BME280;24008;42.664;23.372;2023-01-08T11:09:30;95126.81;;;8.62;56.59
6136;BME280;24008;42.664;23.372;2023-01-08T11:11:58;95126.38;;;8.69;56.72
6136;BME280;24008;42.664;23.372;2023-01-08T11:14:29;95043.53;;;8.20;57.42
6136;BME280;24008;42.664;23.372;2023-01-08T11:17:01;95117.06;;;8.79;57.75
6136;BME280;24008;42.664;23.372;2023-01-08T11:19:34;94987.00;;;7.94;57.27
6136;BME280;24008;42.664;23.372;2023-01-08T11:22:14;95112.50;;;8.82;56.96
6136;BME280;24008;42.664;23.372;2023-01-08T11:24:43;95112.88;;;8.78;56.13
6136;BME280;24008;42.664;23.372;2023-01-08T11:27:14;95122.72;;;8.82;56.28
6136;BME280;24008;42.664;23.372;2023-01-08T11:29:44;95109.31;;;8.80;57.17
6136;BME280;24008;42.664;23.372;2023-01-08T11:32:25;95038.19;;;8.34;57.40
6136;BME280;24008;42.664;23.372;2023-01-08T11:34:59;95103.41;;;8.80;57.56
6136;BME280;24008;42.664;23.372;2023-01-08T11:37:30;95101.28;;;8.85;57.10
6136;BME280;24008;42.664;23.372;2023-01-08T11:39:59;95105.81;;;8.81;57.32
6136;BME280;24008;42.664;23.372;2023-01-08T11:42:37;95093.75;;;8.83;57.38
6136;BME280;24008;42.664;23.372;2023-01-08T11:45:19;95092.50;;;8.78;56.44
6136;BME280;24008;42.664;23.372;2023-01-08T11:48:11;95094.81;;;8.70;57.32
6136;BME280;24008;42.664;23.372;2023-01-08T11:50:53;94933.44;;;7.73;56.78
6136;BME280;24008;42.664;23.372;2023-01-08T11:53:27;95018.03;;;8.42;56.64
6136;BME280;24008;42.664;23.372;2023-01-08T11:56:05;95087.56;;;8.97;57.24
6136;BME280;24008;42.664;23.372;2023-01-08T11:59:00;95017.72;;;8.68;56.45
6136;BME280;24008;42.664;23.372;2023-01-08T12:01:39;95077.47;;;9.27;55.93
6136;BME280;24008;42.664;23.372;2023-01-08T12:04:27;95042.47;;;9.18;55.29
6136;BME280;24008;42.664;23.372;2023-01-08T12:07:07;94916.69;;;8.46;55.86
6136;BME280;24008;42.664;23.372;2023-01-08T12:09:41;95050.28;;;9.17;55.25
6136;BME280;24008;42.664;23.372;2023-01-08T12:12:18;94994.78;;;8.88;55.14
6136;BME280;24008;42.664;23.372;2023-01-08T12:14:56;95063.25;;;9.34;55.50
6136;BME280;24008;42.664;23.372;2023-01-08T12:17:50;94862.00;;;8.08;55.46
6136;BME280;24008;42.664;23.372;2023-01-08T12:20:28;94737.78;;;7.49;55.18
6136;BME280;24008;42.664;23.372;2023-01-08T12:23:10;94908.56;;;8.52;55.28
6136;BME280;24008;42.664;23.372;2023-01-08T12:25:51;95083.59;;;9.46;55.18
6136;BME280;24008;42.664;23.372;2023-01-08T12:28:35;94806.41;;;7.92;54.96
6136;BME280;24008;42.664;23.372;2023-01-08T12:31:21;94909.63;;;8.70;54.50
6136;BME280;24008;42.664;23.372;2023-01-08T12:33:53;95039.66;;;9.63;54.13
6136;BME280;24008;42.664;23.372;2023-01-08T12:36:27;95016.09;;;9.50;54.23
6136;BME280;24008;42.664;23.372;2023-01-08T12:38:59;95039.13;;;9.69;54.98
6136;BME280;24008;42.664;23.372;2023-01-08T12:41:30;95038.09;;;9.81;53.96
6136;BME280;24008;42.664;23.372;2023-01-08T12:44:01;95034.78;;;9.90;54.18
6136;BME280;24008;42.664;23.372;2023-01-08T12:46:31;95030.47;;;9.91;53.98
6136;BME280;24008;42.664;23.372;2023-01-08T12:48:59;95028.88;;;9.90;53.26
6136;BME280;24008;42.664;23.372;2023-01-08T12:51:33;95032.88;;;9.83;53.34
6136;BME280;24008;42.664;23.372;2023-01-08T12:54:07;95021.34;;;9.88;53.65
6136;BME280;24008;42.664;23.372;2023-01-08T12:56:42;94928.88;;;9.35;53.78
6136;BME280;24008;42.664;23.372;2023-01-08T12:59:20;95002.56;;;9.89;53.43
6136;BME280;24008;42.664;23.372;2023-01-08T13:01:54;94904.72;;;9.29;53.19
6136;BME280;24008;42.664;23.372;2023-01-08T13:04:24;94867.19;;;9.20;52.39
6136;BME280;24008;42.664;23.372;2023-01-08T13:07:02;94703.97;;;8.21;52.07
6136;BME280;24008;42.664;23.372;2023-01-08T13:09:30;95021.75;;;10.24;52.48
6136;BME280;24008;42.664;23.372;2023-01-08T13:11:58;95003.44;;;10.19;52.02
6136;BME280;24008;42.664;23.372;2023-01-08T13:14:26;95004.81;;;10.23;52.72
6136;BME280;24008;42.664;23.372;2023-01-08T13:17:02;95011.78;;;10.21;52.66
6136;BME280;24008;42.664;23.372;2023-01-08T13:19:35;95013.16;;;10.25;51.86
6136;BME280;24008;42.664;23.372;2023-01-08T13:22:04;94889.31;;;9.50;51.63